Elgin, Oregon
Current Conditions -  °F | °C
As of 9:55 PM on Wednesday 22 Oct 2014 (Local Time) from KLGD Reporting Station
Overcast Overcast  
Wind Chill: 57°   Ceiling: 9000
Heat Index: 57°   Visibility: 10mi
Dew Point: 34°   Wind: 10mph
Humidity: 41%   Direction: 190°S
Pressure: 29.88"   Gusts: 17mph
Location:  45.56°N, 117.92°W
Report Text: KLGD 230455Z AUTO 19009G15KT 10SM OVC090 14/01 A2988 RMK AO1
Loading
Personal Weather Stations






























Interactive Weather Map
Tropical Storm Tracking
New forecast layout! Learn more

10-Day Weather Forecast

Advertisements
Track Severe Weather on mobile